Time;durP1;ratioP1;P1;durP2;ratioP2;P2;SDS_P1;SDS_P2;PMS_P1;PMS_P2;Temp;Humidity;BMP_temperature;BMP_pressure;BME280_temperature;BME280_humidity;BME280_pressure;Samples;Min_cycle;Max_cycle;Signal;HPM_P1;HPM_P2
2021/03/27 00:01:26;;;;;;;85.80;38.53;;;;;;;;;;5067376;28;20136;-58
2021/03/27 00:04:02;;;;;;;92.07;37.15;;;;;;;;;;5065540;28;20036;-58
2021/03/27 00:06:35;;;;;;;95.95;39.75;;;;;;;;;;5070334;28;20041;-58
2021/03/27 00:09:31;;;;;;;92.00;41.92;;;;;;;;;;5073735;28;20028;-58
2021/03/27 00:12:03;;;;;;;79.25;37.67;;;;;;;;;;5065936;28;20565;-58
2021/03/27 00:14:33;;;;;;;90.65;40.90;;;;;;;;;;5074690;28;20067;-58
2021/03/27 00:17:14;;;;;;;102.93;41.88;;;;;;;;;;5068021;28;20122;-58
2021/03/27 00:19:51;;;;;;;86.30;40.55;;;;;;;;;;5071281;28;20036;-58
2021/03/27 00:22:27;;;;;;;119.15;45.50;;;;;;;;;;5067627;28;20088;-58
2021/03/27 00:24:57;;;;;;;97.53;40.70;;;;;;;;;;5065946;28;20125;-58
2021/03/27 00:27:26;;;;;;;90.63;40.33;;;;;;;;;;5069975;28;20522;-58
2021/03/27 00:29:55;;;;;;;96.00;41.55;;;;;;;;;;5066710;28;20496;-58
2021/03/27 00:32:31;;;;;;;104.80;42.80;;;;;;;;;;5067852;28;20567;-58
2021/03/27 00:35:02;;;;;;;84.15;41.17;;;;;;;;;;5064926;28;20040;-58
2021/03/27 00:37:29;;;;;;;93.63;41.15;;;;;;;;;;5066785;28;20047;-58
2021/03/27 00:40:15;;;;;;;97.28;44.47;;;;;;;;;;5065041;28;20041;-58
2021/03/27 00:42:48;;;;;;;92.32;42.15;;;;;;;;;;5070530;28;20041;-58
2021/03/27 00:45:16;;;;;;;104.10;44.78;;;;;;;;;;5064639;28;20041;-58
2021/03/27 00:47:50;;;;;;;103.40;48.88;;;;;;;;;;5047741;28;20045;-58
2021/03/27 00:50:50;;;;;;;97.00;46.30;;;;;;;;;;5052523;28;20075;-58
2021/03/27 00:53:23;;;;;;;92.55;42.97;;;;;;;;;;5017709;28;20052;-58
2021/03/27 00:55:53;;;;;;;113.07;49.10;;;;;;;;;;5069007;28;20063;-58
2021/03/27 00:58:39;;;;;;;106.50;49.90;;;;;;;;;;5069723;28;20810;-58
2021/03/27 01:01:09;;;;;;;104.60;48.85;;;;;;;;;;5071133;28;20051;-57
2021/03/27 01:03:59;;;;;;;106.05;48.50;;;;;;;;;;5068143;28;20052;-58
2021/03/27 01:06:48;;;;;;;107.25;48.60;;;;;;;;;;5064487;28;20064;-58
2021/03/27 01:09:43;;;;;;;113.25;52.17;;;;;;;;;;5034110;28;20510;-58
2021/03/27 01:12:46;;;;;;;109.63;49.95;;;;;;;;;;4977763;28;20605;-59
2021/03/27 01:15:19;;;;;;;122.97;54.72;;;;;;;;;;5049074;28;20512;-57
2021/03/27 01:17:54;;;;;;;103.32;52.58;;;;;;;;;;5040512;28;20041;-58
2021/03/27 01:20:22;;;;;;;125.03;52.90;;;;;;;;;;5059682;28;20127;-57
2021/03/27 01:22:50;;;;;;;102.78;51.03;;;;;;;;;;5066202;28;20044;-57
2021/03/27 01:25:21;;;;;;;128.02;55.08;;;;;;;;;;5065968;28;20040;-58
2021/03/27 01:27:53;;;;;;;118.90;53.75;;;;;;;;;;5067320;28;20063;-58
2021/03/27 01:30:25;;;;;;;112.85;52.47;;;;;;;;;;5059503;28;20066;-57
2021/03/27 01:33:13;;;;;;;121.45;54.45;;;;;;;;;;5065451;28;20048;-57
2021/03/27 01:35:45;;;;;;;120.90;55.05;;;;;;;;;;5064578;28;20107;-57
2021/03/27 01:38:17;;;;;;;128.65;56.53;;;;;;;;;;5067390;28;20044;-57
2021/03/27 01:40:53;;;;;;;130.25;59.78;;;;;;;;;;5067668;28;20048;-58
2021/03/27 01:43:20;;;;;;;128.27;54.58;;;;;;;;;;5067576;28;20063;-58
2021/03/27 01:45:49;;;;;;;116.65;53.97;;;;;;;;;;5068432;28;20056;-58
2021/03/27 01:48:38;;;;;;;116.38;54.25;;;;;;;;;;5062722;28;20132;-57
2021/03/27 01:51:23;;;;;;;122.90;55.35;;;;;;;;;;5065274;28;20064;-57
2021/03/27 01:53:56;;;;;;;119.28;56.13;;;;;;;;;;5068895;28;20049;-58
2021/03/27 01:56:38;;;;;;;107.07;51.17;;;;;;;;;;5071628;28;20330;-58
2021/03/27 01:59:08;;;;;;;111.70;53.28;;;;;;;;;;5069529;28;20048;-57
2021/03/27 02:01:37;;;;;;;123.80;56.05;;;;;;;;;;5069893;28;20095;-58
2021/03/27 02:04:06;;;;;;;119.55;54.13;;;;;;;;;;5063357;28;20540;-57
2021/03/27 02:06:40;;;;;;;125.63;56.88;;;;;;;;;;5067893;28;20059;-57
2021/03/27 02:09:12;;;;;;;104.20;50.25;;;;;;;;;;5067546;28;20508;-57
2021/03/27 02:11:46;;;;;;;110.55;53.15;;;;;;;;;;5061360;28;20052;-58
2021/03/27 02:14:19;;;;;;;98.40;48.55;;;;;;;;;;5065150;28;20427;-57
2021/03/27 02:16:51;;;;;;;110.68;52.20;;;;;;;;;;5062584;28;20040;-58
2021/03/27 02:19:36;;;;;;;113.75;53.08;;;;;;;;;;5061177;28;20037;-58
2021/03/27 02:22:20;;;;;;;109.15;51.45;;;;;;;;;;5063278;28;20419;-58
2021/03/27 02:24:50;;;;;;;112.07;50.22;;;;;;;;;;5061884;28;20459;-57
2021/03/27 02:27:27;;;;;;;101.20;48.00;;;;;;;;;;5063303;28;20072;-57
2021/03/27 02:30:01;;;;;;;94.03;43.17;;;;;;;;;;5066493;28;20086;-58
2021/03/27 02:32:27;;;;;;;83.43;42.33;;;;;;;;;;5065819;28;20052;-58
2021/03/27 02:35:12;;;;;;;82.70;40.72;;;;;;;;;;5071642;28;20039;-57
2021/03/27 02:37:59;;;;;;;83.47;41.45;;;;;;;;;;5069652;28;20048;-58
2021/03/27 02:40:31;;;;;;;84.35;42.03;;;;;;;;;;5041683;28;20135;-57
2021/03/27 02:42:57;;;;;;;88.53;46.38;;;;;;;;;;5075773;28;20047;-58
2021/03/27 02:45:27;;;;;;;81.95;43.45;;;;;;;;;;5055551;28;20414;-57
2021/03/27 02:47:58;;;;;;;77.10;41.55;;;;;;;;;;5067219;28;20044;-57
2021/03/27 02:50:43;;;;;;;81.22;43.28;;;;;;;;;;5066946;28;20061;-57
2021/03/27 02:53:10;;;;;;;90.15;47.97;;;;;;;;;;5058264;28;20064;-57
2021/03/27 02:55:50;;;;;;;85.13;43.67;;;;;;;;;;5064604;28;20048;-58
2021/03/27 02:58:23;;;;;;;92.43;45.10;;;;;;;;;;5070384;28;20107;-57
2021/03/27 03:00:49;;;;;;;86.18;42.65;;;;;;;;;;5065133;28;20492;-57
2021/03/27 03:03:34;;;;;;;88.70;46.13;;;;;;;;;;5064468;28;20040;-57
2021/03/27 03:06:19;;;;;;;84.63;43.17;;;;;;;;;;5064565;28;20376;-56
2021/03/27 03:08:55;;;;;;;89.05;46.15;;;;;;;;;;5066858;28;20045;-58
2021/03/27 03:11:31;;;;;;;98.47;48.63;;;;;;;;;;5070237;28;20047;-58
2021/03/27 03:14:16;;;;;;;89.20;45.83;;;;;;;;;;5065323;28;20052;-57
2021/03/27 03:16:52;;;;;;;97.95;47.58;;;;;;;;;;5065699;28;20037;-57
2021/03/27 03:19:59;;;;;;;94.28;44.75;;;;;;;;;;5062985;28;20141;-58
2021/03/27 03:22:39;;;;;;;90.60;43.85;;;;;;;;;;5043510;28;20279;-57
2021/03/27 03:25:10;;;;;;;90.93;44.83;;;;;;;;;;5063077;28;20036;-57
2021/03/27 03:28:03;;;;;;;98.35;47.75;;;;;;;;;;5064839;28;20057;-58
2021/03/27 03:30:59;;;;;;;97.55;44.92;;;;;;;;;;5057950;28;20517;-57
2021/03/27 03:33:26;;;;;;;99.65;47.22;;;;;;;;;;5049014;28;20449;-58
2021/03/27 03:35:55;;;;;;;97.38;45.63;;;;;;;;;;5069166;28;20068;-57
2021/03/27 03:38:37;;;;;;;95.75;45.97;;;;;;;;;;5062934;28;20041;-57
2021/03/27 03:41:22;;;;;;;102.00;49.28;;;;;;;;;;5046820;28;20053;-58
2021/03/27 03:43:54;;;;;;;96.30;45.60;;;;;;;;;;5060641;28;20041;-58
2021/03/27 03:46:20;;;;;;;94.38;43.88;;;;;;;;;;5065136;28;20045;-57
2021/03/27 03:48:56;;;;;;;112.18;49.97;;;;;;;;;;5063765;28;20052;-57
2021/03/27 03:51:37;;;;;;;104.78;49.55;;;;;;;;;;5056429;28;20045;-58
2021/03/27 03:54:11;;;;;;;95.85;46.22;;;;;;;;;;5063990;28;20128;-57
2021/03/27 03:56:44;;;;;;;97.78;46.65;;;;;;;;;;5062346;28;20037;-57
2021/03/27 03:59:43;;;;;;;97.60;46.85;;;;;;;;;;5065214;28;20048;-58
2021/03/27 04:02:22;;;;;;;86.22;44.10;;;;;;;;;;5035999;28;20456;-57
2021/03/27 04:04:55;;;;;;;92.97;45.25;;;;;;;;;;5054763;28;20056;-58
2021/03/27 04:07:26;;;;;;;94.00;45.42;;;;;;;;;;5063680;28;20071;-57
2021/03/27 04:09:57;;;;;;;92.65;45.65;;;;;;;;;;5066247;28;20094;-57
2021/03/27 04:12:45;;;;;;;82.88;42.85;;;;;;;;;;5064902;28;20524;-57
2021/03/27 04:15:23;;;;;;;99.60;47.22;;;;;;;;;;5067497;28;20048;-57
2021/03/27 04:17:49;;;;;;;;;;;;;;;;;;5069177;28;20060;-57
2021/03/27 04:20:33;;;;;;;85.07;42.28;;;;;;;;;;5063545;28;19920;-58
2021/03/27 04:23:10;;;;;;;85.38;44.65;;;;;;;;;;5061404;28;20048;-58
2021/03/27 04:25:41;;;;;;;85.13;42.13;;;;;;;;;;5063189;28;20040;-57
2021/03/27 04:28:07;;;;;;;96.75;46.03;;;;;;;;;;5068577;28;20060;-57
2021/03/27 04:30:46;;;;;;;85.60;44.63;;;;;;;;;;5068613;28;20110;-58
2021/03/27 04:33:31;;;;;;;98.05;48.83;;;;;;;;;;5065899;28;20037;-58
2021/03/27 04:36:04;;;;;;;100.80;47.60;;;;;;;;;;5071949;28;20045;-58
2021/03/27 04:38:46;;;;;;;90.57;44.53;;;;;;;;;;5068040;28;20041;-57
2021/03/27 04:41:18;;;;;;;95.53;45.80;;;;;;;;;;5063217;28;20411;-58
2021/03/27 04:43:47;;;;;;;86.55;44.15;;;;;;;;;;5069172;28;20090;-57
2021/03/27 04:46:19;;;;;;;100.50;49.05;;;;;;;;;;5044135;28;20094;-58
2021/03/27 04:48:57;;;;;;;92.82;43.75;;;;;;;;;;5062816;28;20047;-57
2021/03/27 04:51:36;;;;;;;98.78;48.53;;;;;;;;;;5066842;28;20507;-58
2021/03/27 04:54:14;;;;;;;101.57;46.72;;;;;;;;;;5055369;28;20454;-58
2021/03/27 04:56:46;;;;;;;94.55;45.58;;;;;;;;;;5068136;28;20051;-57
2021/03/27 04:59:16;;;;;;;98.57;48.80;;;;;;;;;;5060185;28;20549;-58
2021/03/27 05:01:54;;;;;;;91.00;44.40;;;;;;;;;;5073650;28;20052;-58
2021/03/27 05:04:46;;;;;;;107.45;48.33;;;;;;;;;;5073465;28;20053;-57
2021/03/27 05:07:27;;;;;;;114.03;51.13;;;;;;;;;;5070617;28;20033;-58
2021/03/27 05:10:13;;;;;;;109.97;50.97;;;;;;;;;;5068842;28;20044;-58
2021/03/27 05:12:48;;;;;;;108.57;50.75;;;;;;;;;;5061967;28;20052;-58
2021/03/27 05:15:24;;;;;;;108.90;50.75;;;;;;;;;;5072618;28;20051;-58
2021/03/27 05:18:09;;;;;;;123.97;53.58;;;;;;;;;;5057286;28;20045;-58
2021/03/27 05:20:38;;;;;;;122.13;55.05;;;;;;;;;;5050743;28;20075;-58
2021/03/27 05:23:10;;;;;;;120.13;54.40;;;;;;;;;;5070266;28;20520;-58
2021/03/27 05:25:54;;;;;;;128.73;55.10;;;;;;;;;;5067951;28;20042;-58
2021/03/27 05:28:38;;;;;;;132.85;58.08;;;;;;;;;;5068627;28;20048;-58
2021/03/27 05:31:07;;;;;;;133.82;56.63;;;;;;;;;;5068019;28;20055;-58
2021/03/27 05:33:53;;;;;;;134.05;58.42;;;;;;;;;;5060986;28;20045;-58
2021/03/27 05:36:45;;;;;;;138.18;59.00;;;;;;;;;;5065466;28;20049;-58
2021/03/27 05:39:26;;;;;;;145.82;59.45;;;;;;;;;;5037957;28;20049;-58
2021/03/27 05:41:54;;;;;;;138.68;59.88;;;;;;;;;;5064113;28;20045;-58
2021/03/27 05:44:38;;;;;;;167.27;65.63;;;;;;;;;;5066179;28;20074;-58
2021/03/27 05:47:23;;;;;;;165.13;63.50;;;;;;;;;;5066433;28;20404;-58
2021/03/27 05:50:08;;;;;;;172.40;65.22;;;;;;;;;;5063867;28;20514;-58
2021/03/27 05:52:53;;;;;;;155.73;62.50;;;;;;;;;;5065058;28;20041;-58
2021/03/27 05:55:33;;;;;;;179.00;66.90;;;;;;;;;;5076766;28;20205;-58
2021/03/27 05:58:18;;;;;;;146.32;59.38;;;;;;;;;;5067492;28;20154;-58
2021/03/27 06:01:02;;;;;;;148.77;56.47;;;;;;;;;;5044101;28;20522;-58
2021/03/27 06:03:32;;;;;;;123.93;49.00;;;;;;;;;;5064406;28;20057;-58
2021/03/27 06:06:17;;;;;;;107.75;49.78;;;;;;;;;;5074907;28;20503;-58
2021/03/27 06:08:52;;;;;;;100.82;44.75;;;;;;;;;;5064203;28;20041;-58
2021/03/27 06:11:34;;;;;;;91.82;39.08;;;;;;;;;;5060266;28;20095;-58
2021/03/27 06:14:10;;;;;;;109.88;50.92;;;;;;;;;;5062482;28;20051;-58
2021/03/27 06:16:55;;;;;;;127.65;54.67;;;;;;;;;;5062246;28;20106;-58
2021/03/27 06:19:24;;;;;;;138.35;56.60;;;;;;;;;;5065036;28;20053;-58
2021/03/27 06:22:19;;;;;;;128.32;53.65;;;;;;;;;;5059007;28;20550;-58
2021/03/27 06:24:49;;;;;;;121.65;51.90;;;;;;;;;;5064854;28;20046;-57
2021/03/27 06:27:38;;;;;;;115.30;50.42;;;;;;;;;;5065484;28;20084;-58
2021/03/27 06:30:24;;;;;;;132.70;56.33;;;;;;;;;;5056959;28;20052;-58
2021/03/27 06:33:02;;;;;;;118.40;54.10;;;;;;;;;;5064548;28;20037;-58
2021/03/27 06:35:47;;;;;;;119.75;52.63;;;;;;;;;;5066130;28;20136;-58
2021/03/27 06:38:30;;;;;;;123.75;55.42;;;;;;;;;;5065334;28;20044;-57
2021/03/27 06:41:12;;;;;;;111.97;51.35;;;;;;;;;;5055557;28;20457;-56
2021/03/27 06:43:57;;;;;;;124.00;53.90;;;;;;;;;;5059037;28;20735;-58
2021/03/27 06:46:41;;;;;;;106.68;51.25;;;;;;;;;;5062924;28;20056;-58
2021/03/27 06:49:19;;;;;;;117.20;51.83;;;;;;;;;;5063100;28;20516;-58
2021/03/27 06:51:46;;;;;;;;;;;;;;;;;;5070851;28;20037;-58
2021/03/27 06:54:30;;;;;;;121.75;53.97;;;;;;;;;;5065413;28;19946;-58
2021/03/27 06:57:06;;;;;;;117.25;52.80;;;;;;;;;;5064060;28;20056;-58
2021/03/27 06:59:41;;;;;;;128.25;58.15;;;;;;;;;;5069373;28;20036;-58
2021/03/27 07:02:23;;;;;;;123.95;54.88;;;;;;;;;;5068106;28;20047;-58
2021/03/27 07:05:15;;;;;;;108.60;53.03;;;;;;;;;;5059080;28;20555;-58
2021/03/27 07:07:44;;;;;;;120.72;58.22;;;;;;;;;;5067042;28;20504;-58
2021/03/27 07:10:13;;;;;;;124.65;58.45;;;;;;;;;;5065599;28;20043;-58
2021/03/27 07:12:48;;;;;;;110.53;55.05;;;;;;;;;;5059921;28;20163;-58
2021/03/27 07:15:34;;;;;;;108.00;54.15;;;;;;;;;;5063346;28;20040;-58
2021/03/27 07:18:10;;;;;;;109.40;54.40;;;;;;;;;;4939203;28;20556;-58
2021/03/27 07:20:40;;;;;;;124.72;59.13;;;;;;;;;;4999660;28;69433;-58
2021/03/27 07:23:15;;;;;;;133.65;61.90;;;;;;;;;;4828487;28;20494;-58
2021/03/27 07:26:00;;;;;;;128.75;58.20;;;;;;;;;;5032524;28;20091;-58
2021/03/27 07:28:42;;;;;;;129.18;60.03;;;;;;;;;;5044656;28;20479;-58
2021/03/27 07:31:11;;;;;;;123.10;61.08;;;;;;;;;;5045600;28;20052;-58
2021/03/27 07:33:47;;;;;;;113.65;53.88;;;;;;;;;;5047743;28;20056;-58
2021/03/27 07:36:19;;;;;;;117.47;54.70;;;;;;;;;;5047256;28;20037;-59
2021/03/27 07:38:51;;;;;;;124.80;56.35;;;;;;;;;;5047585;28;20041;-58
2021/03/27 07:41:18;;;;;;;114.72;54.83;;;;;;;;;;5045051;28;20124;-58
2021/03/27 07:44:02;;;;;;;126.95;60.78;;;;;;;;;;5049861;28;20055;-59
2021/03/27 07:46:31;;;;;;;116.45;54.33;;;;;;;;;;5051737;28;20052;-58
2021/03/27 07:49:06;;;;;;;124.05;60.28;;;;;;;;;;5046785;28;20049;-58
2021/03/27 07:51:44;;;;;;;127.38;63.92;;;;;;;;;;5045199;28;20068;-58
2021/03/27 07:54:29;;;;;;;128.48;61.28;;;;;;;;;;5049737;28;20055;-58
2021/03/27 07:57:11;;;;;;;124.32;60.65;;;;;;;;;;5052257;28;20102;-58
2021/03/27 07:59:47;;;;;;;120.13;58.80;;;;;;;;;;5052433;28;20060;-58
2021/03/27 08:02:35;;;;;;;119.60;60.58;;;;;;;;;;5051624;28;20087;-58
2021/03/27 08:05:20;;;;;;;125.85;60.90;;;;;;;;;;5052043;28;20056;-58
2021/03/27 08:08:02;;;;;;;129.75;60.67;;;;;;;;;;5052587;28;20057;-58
2021/03/27 08:10:43;;;;;;;127.07;59.58;;;;;;;;;;5054184;28;20072;-58
2021/03/27 08:13:30;;;;;;;123.28;62.88;;;;;;;;;;5051767;28;20060;-59
2021/03/27 08:16:15;;;;;;;118.95;59.17;;;;;;;;;;5049627;28;20052;-58
2021/03/27 08:19:07;;;;;;;120.40;62.35;;;;;;;;;;5050548;28;20063;-58
2021/03/27 08:21:46;;;;;;;123.32;61.55;;;;;;;;;;5016856;28;20068;-59
2021/03/27 08:24:35;;;;;;;125.03;60.05;;;;;;;;;;5050007;28;20041;-57
2021/03/27 08:27:25;;;;;;;127.68;61.58;;;;;;;;;;5053025;28;20455;-58
2021/03/27 08:29:57;;;;;;;119.30;63.05;;;;;;;;;;5042771;28;20063;-59
2021/03/27 08:32:38;;;;;;;122.63;60.30;;;;;;;;;;5051960;28;20488;-58
2021/03/27 08:35:19;;;;;;;120.93;58.42;;;;;;;;;;5071491;28;20036;-58
2021/03/27 08:38:04;;;;;;;116.60;61.40;;;;;;;;;;5070832;28;20477;-58
2021/03/27 08:40:42;;;;;;;122.47;61.95;;;;;;;;;;5071908;28;20231;-58
2021/03/27 08:43:19;;;;;;;119.93;60.47;;;;;;;;;;5070474;28;20052;-58
2021/03/27 08:45:52;;;;;;;113.65;58.03;;;;;;;;;;5070311;28;20037;-58
2021/03/27 08:48:31;;;;;;;119.13;59.60;;;;;;;;;;5069444;28;20059;-58
2021/03/27 08:51:18;;;;;;;116.63;62.03;;;;;;;;;;5077567;28;20419;-58
2021/03/27 08:53:59;;;;;;;126.30;64.28;;;;;;;;;;5067099;28;20055;-58
2021/03/27 08:56:44;;;;;;;124.85;63.05;;;;;;;;;;5066103;28;20051;-58
2021/03/27 08:59:25;;;;;;;123.38;60.92;;;;;;;;;;5070195;28;20041;-58
2021/03/27 09:02:11;;;;;;;124.10;62.92;;;;;;;;;;5070790;28;20040;-58
2021/03/27 09:04:38;;;;;;;119.45;59.83;;;;;;;;;;5071090;28;20045;-58
2021/03/27 09:07:20;;;;;;;122.25;60.83;;;;;;;;;;5065091;28;20086;-57
2021/03/27 09:09:46;;;;;;;109.50;58.42;;;;;;;;;;5072361;28;20090;-58
2021/03/27 09:12:18;;;;;;;120.18;63.17;;;;;;;;;;5071185;28;20044;-58
2021/03/27 09:15:03;;;;;;;119.65;58.63;;;;;;;;;;5073655;28;20094;-58
2021/03/27 09:17:30;;;;;;;111.45;57.10;;;;;;;;;;5071269;28;20053;-58
2021/03/27 09:20:17;;;;;;;83.82;35.78;;;;;;;;;;5072124;28;20125;-58
2021/03/27 09:22:46;;;;;;;91.57;40.63;;;;;;;;;;5069121;28;20485;-58
2021/03/27 09:25:31;;;;;;;113.15;59.58;;;;;;;;;;5066306;28;20481;-58
2021/03/27 09:28:16;;;;;;;117.28;60.33;;;;;;;;;;5067972;28;20060;-58
2021/03/27 09:30:50;;;;;;;111.30;58.55;;;;;;;;;;5068632;28;20049;-58
2021/03/27 09:33:24;;;;;;;107.63;58.30;;;;;;;;;;5066087;28;20319;-58
2021/03/27 09:35:50;;;;;;;121.03;61.58;;;;;;;;;;5068288;28;20098;-58
2021/03/27 09:38:25;;;;;;;121.45;61.28;;;;;;;;;;5073474;28;20117;-58
2021/03/27 09:40:54;;;;;;;113.43;59.30;;;;;;;;;;5065407;28;20041;-58
2021/03/27 09:43:32;;;;;;;113.80;61.20;;;;;;;;;;5069869;28;20041;-58
2021/03/27 09:46:09;;;;;;;116.20;59.03;;;;;;;;;;5061942;28;20070;-57
2021/03/27 09:48:46;;;;;;;112.50;59.85;;;;;;;;;;5070131;28;20514;-58
2021/03/27 09:51:18;;;;;;;110.97;60.47;;;;;;;;;;5068198;28;20082;-58
2021/03/27 09:53:47;;;;;;;111.47;58.40;;;;;;;;;;5067318;28;20056;-58
2021/03/27 09:56:24;;;;;;;110.88;58.80;;;;;;;;;;5064845;28;20049;-58
2021/03/27 09:58:54;;;;;;;107.65;58.72;;;;;;;;;;5067766;28;20052;-58
2021/03/27 10:01:27;;;;;;;112.00;57.88;;;;;;;;;;5068336;28;20136;-58
2021/03/27 10:04:09;;;;;;;108.60;57.47;;;;;;;;;;5069051;28;20071;-58
2021/03/27 10:06:45;;;;;;;115.07;61.10;;;;;;;;;;5062837;28;20075;-58
2021/03/27 10:09:30;;;;;;;110.07;59.22;;;;;;;;;;5070472;28;20409;-58
2021/03/27 10:12:02;;;;;;;121.95;60.55;;;;;;;;;;5060678;28;20041;-58
2021/03/27 10:14:31;;;;;;;115.30;58.90;;;;;;;;;;5070380;28;20105;-59
2021/03/27 10:17:22;;;;;;;107.45;57.47;;;;;;;;;;5066151;28;20050;-58
2021/03/27 10:20:01;;;;;;;95.60;53.63;;;;;;;;;;5064818;28;20041;-58
2021/03/27 10:22:32;;;;;;;107.20;57.95;;;;;;;;;;5062278;28;20044;-58
2021/03/27 10:25:13;;;;;;;103.63;54.63;;;;;;;;;;5068293;28;20044;-58
2021/03/27 10:28:00;;;;;;;103.63;57.15;;;;;;;;;;5062952;28;20063;-58
2021/03/27 10:30:35;;;;;;;105.50;57.90;;;;;;;;;;5063580;28;20406;-58
2021/03/27 10:33:17;;;;;;;96.70;55.05;;;;;;;;;;5050412;28;20048;-58
2021/03/27 10:35:47;;;;;;;101.60;58.00;;;;;;;;;;5063781;28;20044;-58
2021/03/27 10:38:28;;;;;;;98.75;55.72;;;;;;;;;;5060347;28;20055;-57
2021/03/27 10:40:57;;;;;;;98.65;54.80;;;;;;;;;;5063880;28;20056;-58
2021/03/27 10:43:55;;;;;;;97.63;54.25;;;;;;;;;;5065961;28;20488;-58
2021/03/27 10:46:28;;;;;;;103.30;54.90;;;;;;;;;;5041123;28;20052;-58
2021/03/27 10:48:58;;;;;;;101.95;56.20;;;;;;;;;;5059029;28;20045;-59
2021/03/27 10:51:24;;;;;;;88.20;50.83;;;;;;;;;;5069467;28;20044;-59
2021/03/27 10:53:56;;;;;;;99.38;54.10;;;;;;;;;;5063543;28;20033;-59
2021/03/27 10:56:23;;;;;;;92.25;50.10;;;;;;;;;;5064844;28;20135;-58
2021/03/27 10:59:08;;;;;;;102.72;53.58;;;;;;;;;;5062893;28;20039;-58
2021/03/27 11:01:48;;;;;;;88.32;50.50;;;;;;;;;;5067965;28;20555;-59
2021/03/27 11:04:17;;;;;;;87.63;48.95;;;;;;;;;;5063883;28;20196;-58
2021/03/27 11:07:03;;;;;;;85.00;50.42;;;;;;;;;;5063378;28;20374;-58
2021/03/27 11:09:58;;;;;;;88.00;50.80;;;;;;;;;;5061043;28;20094;-58
2021/03/27 11:12:43;;;;;;;85.95;48.03;;;;;;;;;;5059176;28;20086;-59
2021/03/27 11:15:28;;;;;;;82.03;49.22;;;;;;;;;;5060016;28;21075;-58
2021/03/27 11:17:57;;;;;;;83.93;49.55;;;;;;;;;;5070704;28;20044;-58
2021/03/27 11:20:48;;;;;;;80.93;49.13;;;;;;;;;;5066362;28;20169;-59
2021/03/27 11:23:38;;;;;;;85.13;49.50;;;;;;;;;;5068531;28;20179;-58
2021/03/27 11:26:11;;;;;;;84.45;49.75;;;;;;;;;;5068846;28;20036;-59
2021/03/27 11:28:47;;;;;;;85.75;48.88;;;;;;;;;;5052765;28;20045;-58
2021/03/27 11:31:18;;;;;;;94.47;52.30;;;;;;;;;;5046681;28;20091;-58
2021/03/27 11:33:48;;;;;;;96.70;52.78;;;;;;;;;;5043968;28;20491;-58
2021/03/27 11:36:20;;;;;;;105.68;55.03;;;;;;;;;;5044562;28;20088;-58
2021/03/27 11:38:53;;;;;;;110.85;57.50;;;;;;;;;;5043476;28;20116;-58
2021/03/27 11:41:28;;;;;;;111.20;57.50;;;;;;;;;;5043891;28;20041;-58
2021/03/27 11:44:17;;;;;;;107.15;57.90;;;;;;;;;;5041990;28;20567;-58
2021/03/27 11:46:45;;;;;;;110.55;58.20;;;;;;;;;;5043109;28;20042;-58
2021/03/27 11:49:27;;;;;;;116.28;59.97;;;;;;;;;;5044714;28;20048;-58
2021/03/27 11:52:00;;;;;;;106.32;57.78;;;;;;;;;;5048598;28;20053;-58
2021/03/27 11:54:45;;;;;;;107.68;58.50;;;;;;;;;;5050798;28;20079;-58
2021/03/27 11:57:21;;;;;;;119.13;60.25;;;;;;;;;;5043846;28;20042;-57
2021/03/27 12:02:40;;;;;;;116.28;59.80;;;;;;;;;;5032014;28;20456;-58
2021/03/27 12:05:06;;;;;;;111.97;61.17;;;;;;;;;;5041346;28;20464;-58
2021/03/27 12:07:36;;;;;;;117.82;61.80;;;;;;;;;;5041098;28;20091;-58
2021/03/27 12:10:21;;;;;;;121.80;62.85;;;;;;;;;;5045938;28;20480;-58
2021/03/27 12:13:06;;;;;;;116.57;60.92;;;;;;;;;;5042678;28;20049;-57
2021/03/27 12:15:52;;;;;;;124.75;60.97;;;;;;;;;;5043609;28;20512;-57
2021/03/27 12:18:51;;;;;;;120.45;61.22;;;;;;;;;;5042163;28;20045;-58
2021/03/27 12:21:21;;;;;;;126.78;60.58;;;;;;;;;;5040667;28;20052;-58
2021/03/27 12:23:55;;;;;;;130.60;61.38;;;;;;;;;;5041542;28;20689;-58
2021/03/27 12:26:33;;;;;;;112.30;59.33;;;;;;;;;;5048697;28;20118;-58
2021/03/27 12:29:06;;;;;;;120.97;60.67;;;;;;;;;;5064452;28;20063;-58
2021/03/27 12:31:50;;;;;;;134.48;67.15;;;;;;;;;;5063803;28;20052;-58
2021/03/27 12:34:28;;;;;;;134.57;67.18;;;;;;;;;;5065839;28;20043;-58
2021/03/27 12:37:13;;;;;;;159.60;72.95;;;;;;;;;;5063114;28;20045;-58
2021/03/27 12:39:58;;;;;;;120.45;53.33;;;;;;;;;;5065843;28;20044;-58
2021/03/27 12:42:44;;;;;;;77.05;31.15;;;;;;;;;;5063051;28;20052;-58
2021/03/27 12:45:14;;;;;;;60.90;23.55;;;;;;;;;;5067161;28;20123;-58
2021/03/27 12:47:57;;;;;;;45.35;17.00;;;;;;;;;;5064986;28;20086;-58
2021/03/27 12:50:35;;;;;;;31.00;12.05;;;;;;;;;;5067054;28;20073;-58
2021/03/27 12:53:20;;;;;;;20.77;7.85;;;;;;;;;;5064257;28;20040;-59
2021/03/27 12:56:08;;;;;;;12.55;5.00;;;;;;;;;;5064958;28;20029;-58
2021/03/27 12:58:44;;;;;;;10.80;4.30;;;;;;;;;;5072179;28;20070;-58
2021/03/27 13:01:23;;;;;;;6.45;3.05;;;;;;;;;;5068024;28;20040;-58
2021/03/27 13:03:49;;;;;;;4.88;2.28;;;;;;;;;;5060838;28;20389;-58
2021/03/27 13:06:24;;;;;;;6.32;2.30;;;;;;;;;;5060945;28;20044;-59
2021/03/27 13:09:10;;;;;;;3.08;1.60;;;;;;;;;;5063009;28;20048;-59
2021/03/27 13:12:02;;;;;;;5.43;1.50;;;;;;;;;;5069617;28;20040;-58
2021/03/27 13:14:48;;;;;;;4.50;1.75;;;;;;;;;;5057393;28;20063;-58
2021/03/27 13:17:20;;;;;;;4.75;1.52;;;;;;;;;;5052258;28;20060;-58
2021/03/27 13:20:13;;;;;;;5.10;1.35;;;;;;;;;;5067767;28;20041;-58
2021/03/27 13:22:47;;;;;;;4.20;1.40;;;;;;;;;;5026340;28;20072;-58
2021/03/27 13:25:16;;;;;;;4.18;1.58;;;;;;;;;;5066339;28;20052;-58
2021/03/27 13:27:52;;;;;;;5.43;1.33;;;;;;;;;;5068478;28;20067;-58
2021/03/27 13:30:24;;;;;;;3.35;1.50;;;;;;;;;;5066787;28;20439;-58
2021/03/27 13:33:09;;;;;;;3.65;2.25;;;;;;;;;;5066033;28;20044;-59
2021/03/27 13:35:51;;;;;;;4.10;1.35;;;;;;;;;;5068375;28;20162;-58
2021/03/27 13:38:30;;;;;;;0.90;0.80;;;;;;;;;;5069004;28;20127;-58
2021/03/27 13:40:56;;;;;;;;;;;;;;;;;;5067262;28;20041;-58
2021/03/27 13:43:32;;;;;;;2.25;1.05;;;;;;;;;;5072393;28;19932;-58
2021/03/27 13:46:20;;;;;;;4.30;1.83;;;;;;;;;;5067771;28;20530;-58
2021/03/27 13:48:46;;;;;;;;;;;;;;;;;;4184063;28;10001041;-58
2021/03/27 13:51:19;;;;;;;2.60;0.98;;;;;;;;;;5067278;28;19924;-58
2021/03/27 13:53:56;;;;;;;1.90;1.20;;;;;;;;;;5054009;28;20099;-58
2021/03/27 13:56:22;;;;;;;1.48;1.05;;;;;;;;;;5039876;28;20064;-58
2021/03/27 13:58:58;;;;;;;1.98;1.40;;;;;;;;;;5063359;28;20043;-58
2021/03/27 14:01:32;;;;;;;3.33;1.48;;;;;;;;;;5063004;28;20052;-58
2021/03/27 14:03:59;;;;;;;3.03;1.10;;;;;;;;;;5065964;28;20053;-58
2021/03/27 14:06:30;;;;;;;5.32;1.30;;;;;;;;;;5071111;28;20131;-58
2021/03/27 14:09:02;;;;;;;3.33;1.10;;;;;;;;;;5066961;28;20037;-58
2021/03/27 14:11:31;;;;;;;1.38;1.00;;;;;;;;;;5064301;28;20041;-58
2021/03/27 14:13:59;;;;;;;5.35;1.30;;;;;;;;;;5048150;28;20097;-58
2021/03/27 14:16:45;;;;;;;2.70;1.00;;;;;;;;;;5060055;28;20483;-58
2021/03/27 14:19:23;;;;;;;4.85;1.20;;;;;;;;;;5061900;28;20041;-58
2021/03/27 14:21:58;;;;;;;2.17;1.02;;;;;;;;;;5061826;28;20041;-58
2021/03/27 14:24:36;;;;;;;1.80;1.00;;;;;;;;;;5057410;28;20057;-58
2021/03/27 14:27:15;;;;;;;5.03;1.30;;;;;;;;;;5063542;28;20052;-58
2021/03/27 14:29:47;;;;;;;1.52;0.82;;;;;;;;;;5068357;28;20048;-58
2021/03/27 14:32:20;;;;;;;5.05;1.10;;;;;;;;;;5058572;28;20044;-58
2021/03/27 14:34:59;;;;;;;5.05;1.05;;;;;;;;;;5062097;28;20041;-58
2021/03/27 14:37:28;;;;;;;4.13;1.20;;;;;;;;;;5062629;28;20098;-58
2021/03/27 14:40:10;;;;;;;0.98;0.88;;;;;;;;;;5060918;28;20036;-58
2021/03/27 14:42:36;;;;;;;2.50;1.20;;;;;;;;;;5062287;28;20067;-60
2021/03/27 14:45:02;;;;;;;6.35;1.20;;;;;;;;;;5062107;28;20464;-60
2021/03/27 14:47:40;;;;;;;2.53;1.27;;;;;;;;;;5071441;28;20032;-60
2021/03/27 14:50:13;;;;;;;2.45;1.08;;;;;;;;;;5050489;28;20415;-60
2021/03/27 14:52:39;;;;;;;1.30;1.00;;;;;;;;;;5065134;28;20131;-60
2021/03/27 14:55:41;;;;;;;1.27;0.75;;;;;;;;;;5067514;28;20047;-60
2021/03/27 14:58:32;;;;;;;2.75;1.33;;;;;;;;;;5001545;28;20060;-60
2021/03/27 15:01:17;;;;;;;1.60;1.20;;;;;;;;;;5057978;28;20049;-60
2021/03/27 15:03:48;;;;;;;5.15;0.90;;;;;;;;;;5063263;28;20033;-60
2021/03/27 15:06:17;;;;;;;4.60;1.13;;;;;;;;;;5048676;28;20638;-60
2021/03/27 15:08:48;;;;;;;3.33;1.90;;;;;;;;;;5069566;28;20047;-60
2021/03/27 15:11:19;;;;;;;2.83;1.30;;;;;;;;;;5063283;28;20044;-60
2021/03/27 15:13:48;;;;;;;4.15;1.33;;;;;;;;;;5063996;28;20107;-60
2021/03/27 15:16:24;;;;;;;4.60;1.65;;;;;;;;;;5068088;28;20119;-60
2021/03/27 15:18:54;;;;;;;4.65;1.90;;;;;;;;;;5069863;28;20066;-59